sensor_id;sensor_type;location;lat;lon;timestamp;P1;durP1;ratioP1;P2;durP2;ratioP2
61675;SDS011;47574;52.090;5.244;2022-07-29T00:00:44;3.0;;;1.0;;
61675;SDS011;47574;52.090;5.244;2022-07-29T00:02:32;1.7;;;1.2;;
61675;SDS011;47574;52.090;5.244;2022-07-29T00:04:19;1.4;;;1.2;;
61675;SDS011;47574;52.090;5.244;2022-07-29T00:07:53;3.4;;;1.2;;
61675;SDS011;47574;52.090;5.244;2022-07-29T00:09:40;2.8;;;1.3;;
61675;SDS011;47574;52.090;5.244;2022-07-29T00:11:27;2.0;;;1.2;;
61675;SDS011;47574;52.090;5.244;2022-07-29T00:13:14;2.6;;;1.11;;
61675;SDS011;47574;52.090;5.244;2022-07-29T00:15:01;2.7;;;1.2;;
61675;SDS011;47574;52.090;5.244;2022-07-29T00:16:48;3.1;;;1.2;;
61675;SDS011;47574;52.090;5.244;2022-07-29T00:20:20;4.5;;;1.3;;
61675;SDS011;47574;52.090;5.244;2022-07-29T00:22:07;1.5;;;1.2;;
61675;SDS011;47574;52.090;5.244;2022-07-29T00:23:53;2.0;;;1.11;;
61675;SDS011;47574;52.090;5.244;2022-07-29T00:25:40;3.3;;;1.3;;
61675;SDS011;47574;52.090;5.244;2022-07-29T00:27:26;1.7;;;1.11;;
61675;SDS011;47574;52.090;5.244;2022-07-29T00:30:58;2.0;;;1.0;;
61675;SDS011;47574;52.090;5.244;2022-07-29T00:32:44;1.8;;;1.2;;
61675;SDS011;47574;52.090;5.244;2022-07-29T00:37:33;2.0;;;0.8;;
61675;SDS011;47574;52.090;5.244;2022-07-29T00:39:19;2.1;;;1.2;;
61675;SDS011;47574;52.090;5.244;2022-07-29T00:41:05;1.5;;;1.0;;
61675;SDS011;47574;52.090;5.244;2022-07-29T00:42:51;3.7;;;1.4;;
61675;SDS011;47574;52.090;5.244;2022-07-29T00:44:38;1.8;;;1.0;;
61675;SDS011;47574;52.090;5.244;2022-07-29T00:46:25;2.5;;;0.9;;
61675;SDS011;47574;52.090;5.244;2022-07-29T00:48:12;3.3;;;1.11;;
61675;SDS011;47574;52.090;5.244;2022-07-29T00:51:46;2.1;;;0.9;;
61675;SDS011;47574;52.090;5.244;2022-07-29T00:53:35;2.7;;;1.11;;
61675;SDS011;47574;52.090;5.244;2022-07-29T00:55:22;3.1;;;1.11;;
61675;SDS011;47574;52.090;5.244;2022-07-29T00:57:09;3.5;;;1.0;;
61675;SDS011;47574;52.090;5.244;2022-07-29T00:58:57;2.7;;;1.11;;
61675;SDS011;47574;52.090;5.244;2022-07-29T01:00:44;2.1;;;1.11;;
61675;SDS011;47574;52.090;5.244;2022-07-29T01:04:18;1.5;;;1.0;;
61675;SDS011;47574;52.090;5.244;2022-07-29T01:06:05;1.9;;;1.0;;
61675;SDS011;47574;52.090;5.244;2022-07-29T01:07:53;2.1;;;0.9;;
61675;SDS011;47574;52.090;5.244;2022-07-29T01:09:44;2.4;;;1.3;;
61675;SDS011;47574;52.090;5.244;2022-07-29T01:11:32;1.8;;;1.0;;
61675;SDS011;47574;52.090;5.244;2022-07-29T01:13:20;2.7;;;0.9;;
61675;SDS011;47574;52.090;5.244;2022-07-29T01:17:06;3.1;;;0.8;;
61675;SDS011;47574;52.090;5.244;2022-07-29T01:18:59;4.41;;;1.0;;
61675;SDS011;47574;52.090;5.244;2022-07-29T01:21:38;3.0;;;1.11;;
61675;SDS011;47574;52.090;5.244;2022-07-29T01:24:15;2.4;;;1.3;;
61675;SDS011;47574;52.090;5.244;2022-07-29T01:26:49;1.6;;;1.0;;
61675;SDS011;47574;52.090;5.244;2022-07-29T01:28:47;1.7;;;1.0;;
61675;SDS011;47574;52.090;5.244;2022-07-29T01:30:45;3.2;;;1.2;;
61675;SDS011;47574;52.090;5.244;2022-07-29T01:32:36;1.7;;;1.2;;
61675;SDS011;47574;52.090;5.244;2022-07-29T01:34:25;4.0;;;1.11;;
61675;SDS011;47574;52.090;5.244;2022-07-29T01:36:22;1.8;;;0.8;;
61675;SDS011;47574;52.090;5.244;2022-07-29T01:40:08;2.7;;;1.0;;
61675;SDS011;47574;52.090;5.244;2022-07-29T01:42:09;1.8;;;1.11;;
61675;SDS011;47574;52.090;5.244;2022-07-29T01:44:02;2.5;;;1.0;;
61675;SDS011;47574;52.090;5.244;2022-07-29T01:46:00;3.1;;;1.4;;
61675;SDS011;47574;52.090;5.244;2022-07-29T01:47:54;2.7;;;1.2;;
61675;SDS011;47574;52.090;5.244;2022-07-29T01:49:50;1.7;;;1.0;;
61675;SDS011;47574;52.090;5.244;2022-07-29T01:51:41;3.0;;;1.2;;
61675;SDS011;47574;52.090;5.244;2022-07-29T01:53:36;3.7;;;1.11;;
61675;SDS011;47574;52.090;5.244;2022-07-29T01:55:38;2.21;;;1.11;;
61675;SDS011;47574;52.090;5.244;2022-07-29T01:57:30;1.8;;;0.8;;
61675;SDS011;47574;52.090;5.244;2022-07-29T01:59:19;3.0;;;1.11;;
61675;SDS011;47574;52.090;5.244;2022-07-29T02:02:56;3.3;;;1.11;;
61675;SDS011;47574;52.090;5.244;2022-07-29T02:04:48;3.1;;;0.9;;
61675;SDS011;47574;52.090;5.244;2022-07-29T02:06:37;2.5;;;1.0;;
61675;SDS011;47574;52.090;5.244;2022-07-29T02:08:26;3.1;;;1.0;;
61675;SDS011;47574;52.090;5.244;2022-07-29T02:10:16;2.5;;;1.3;;
61675;SDS011;47574;52.090;5.244;2022-07-29T02:12:08;2.31;;;1.11;;
61675;SDS011;47574;52.090;5.244;2022-07-29T02:13:58;2.21;;;0.9;;
61675;SDS011;47574;52.090;5.244;2022-07-29T02:17:39;2.5;;;1.11;;
61675;SDS011;47574;52.090;5.244;2022-07-29T02:19:30;2.1;;;1.11;;
61675;SDS011;47574;52.090;5.244;2022-07-29T02:21:19;1.7;;;0.9;;
61675;SDS011;47574;52.090;5.244;2022-07-29T02:23:10;2.6;;;1.11;;
61675;SDS011;47574;52.090;5.244;2022-07-29T02:24:59;3.1;;;1.0;;
61675;SDS011;47574;52.090;5.244;2022-07-29T02:26:47;2.7;;;1.2;;
61675;SDS011;47574;52.090;5.244;2022-07-29T02:28:36;3.0;;;1.2;;
61675;SDS011;47574;52.090;5.244;2022-07-29T02:32:11;2.8;;;1.11;;
61675;SDS011;47574;52.090;5.244;2022-07-29T02:34:02;2.5;;;1.11;;
61675;SDS011;47574;52.090;5.244;2022-07-29T02:35:52;1.6;;;1.11;;
61675;SDS011;47574;52.090;5.244;2022-07-29T02:37:40;3.6;;;1.11;;
61675;SDS011;47574;52.090;5.244;2022-07-29T02:39:29;2.7;;;1.2;;
61675;SDS011;47574;52.090;5.244;2022-07-29T02:41:18;2.7;;;1.11;;
61675;SDS011;47574;52.090;5.244;2022-07-29T02:44:56;3.1;;;1.11;;
61675;SDS011;47574;52.090;5.244;2022-07-29T02:46:45;2.1;;;1.2;;
61675;SDS011;47574;52.090;5.244;2022-07-29T02:48:37;2.31;;;1.2;;
61675;SDS011;47574;52.090;5.244;2022-07-29T02:50:29;4.1;;;1.6;;
61675;SDS011;47574;52.090;5.244;2022-07-29T02:52:21;2.6;;;1.5;;
61675;SDS011;47574;52.090;5.244;2022-07-29T02:54:17;3.8;;;1.5;;
61675;SDS011;47574;52.090;5.244;2022-07-29T02:56:10;2.31;;;1.2;;
61675;SDS011;47574;52.090;5.244;2022-07-29T02:58:01;4.1;;;1.3;;
61675;SDS011;47574;52.090;5.244;2022-07-29T03:01:43;2.6;;;1.2;;
61675;SDS011;47574;52.090;5.244;2022-07-29T03:03:32;1.7;;;1.0;;
61675;SDS011;47574;52.090;5.244;2022-07-29T03:05:21;4.3;;;1.4;;
61675;SDS011;47574;52.090;5.244;2022-07-29T03:07:08;3.4;;;1.4;;
61675;SDS011;47574;52.090;5.244;2022-07-29T03:08:58;2.7;;;1.3;;
61675;SDS011;47574;52.090;5.244;2022-07-29T03:10:47;3.2;;;1.4;;
61675;SDS011;47574;52.090;5.244;2022-07-29T03:12:34;3.4;;;1.4;;
61675;SDS011;47574;52.090;5.244;2022-07-29T03:16:10;2.6;;;1.4;;
61675;SDS011;47574;52.090;5.244;2022-07-29T03:17:59;3.3;;;1.4;;
61675;SDS011;47574;52.090;5.244;2022-07-29T03:19:45;4.0;;;1.4;;
61675;SDS011;47574;52.090;5.244;2022-07-29T03:21:31;2.9;;;1.3;;
61675;SDS011;47574;52.090;5.244;2022-07-29T03:23:21;2.8;;;1.3;;
61675;SDS011;47574;52.090;5.244;2022-07-29T03:25:10;4.41;;;1.5;;
61675;SDS011;47574;52.090;5.244;2022-07-29T03:28:46;3.3;;;1.2;;
61675;SDS011;47574;52.090;5.244;2022-07-29T03:30:33;2.7;;;1.2;;
61675;SDS011;47574;52.090;5.244;2022-07-29T03:32:19;3.1;;;1.7;;
61675;SDS011;47574;52.090;5.244;2022-07-29T03:34:06;4.41;;;1.5;;
61675;SDS011;47574;52.090;5.244;2022-07-29T03:35:52;3.3;;;1.6;;
61675;SDS011;47574;52.090;5.244;2022-07-29T03:37:38;3.5;;;1.5;;
61675;SDS011;47574;52.090;5.244;2022-07-29T03:41:16;3.7;;;1.6;;
61675;SDS011;47574;52.090;5.244;2022-07-29T03:43:05;4.3;;;1.4;;
61675;SDS011;47574;52.090;5.244;2022-07-29T03:44:56;3.4;;;1.5;;
61675;SDS011;47574;52.090;5.244;2022-07-29T03:46:45;4.0;;;1.6;;
61675;SDS011;47574;52.090;5.244;2022-07-29T03:48:36;2.5;;;1.6;;
61675;SDS011;47574;52.090;5.244;2022-07-29T03:50:25;2.0;;;1.5;;
61675;SDS011;47574;52.090;5.244;2022-07-29T03:54:00;3.5;;;1.7;;
61675;SDS011;47574;52.090;5.244;2022-07-29T03:55:48;2.4;;;1.5;;
61675;SDS011;47574;52.090;5.244;2022-07-29T03:57:40;2.8;;;1.5;;
61675;SDS011;47574;52.090;5.244;2022-07-29T03:59:28;3.6;;;1.6;;
61675;SDS011;47574;52.090;5.244;2022-07-29T04:01:18;3.2;;;1.8;;
61675;SDS011;47574;52.090;5.244;2022-07-29T04:03:06;2.6;;;1.7;;
61675;SDS011;47574;52.090;5.244;2022-07-29T04:04:54;3.0;;;1.6;;
61675;SDS011;47574;52.090;5.244;2022-07-29T04:08:31;4.1;;;1.6;;
61675;SDS011;47574;52.090;5.244;2022-07-29T04:10:18;2.7;;;1.4;;
61675;SDS011;47574;52.090;5.244;2022-07-29T04:12:05;4.61;;;2.21;;
61675;SDS011;47574;52.090;5.244;2022-07-29T04:13:52;4.2;;;1.7;;
61675;SDS011;47574;52.090;5.244;2022-07-29T04:15:38;2.7;;;1.6;;
61675;SDS011;47574;52.090;5.244;2022-07-29T04:17:25;4.41;;;1.6;;
61675;SDS011;47574;52.090;5.244;2022-07-29T04:21:00;3.8;;;1.7;;
61675;SDS011;47574;52.090;5.244;2022-07-29T04:22:47;1.7;;;1.6;;
61675;SDS011;47574;52.090;5.244;2022-07-29T04:24:34;3.3;;;1.6;;
61675;SDS011;47574;52.090;5.244;2022-07-29T04:26:20;1.9;;;1.7;;
61675;SDS011;47574;52.090;5.244;2022-07-29T04:28:08;5.3;;;1.9;;
61675;SDS011;47574;52.090;5.244;2022-07-29T04:29:56;3.5;;;1.8;;
61675;SDS011;47574;52.090;5.244;2022-07-29T04:33:29;3.9;;;1.7;;
61675;SDS011;47574;52.090;5.244;2022-07-29T04:35:15;4.8;;;1.9;;
61675;SDS011;47574;52.090;5.244;2022-07-29T04:37:01;2.31;;;1.6;;
61675;SDS011;47574;52.090;5.244;2022-07-29T04:38:49;2.6;;;1.5;;
61675;SDS011;47574;52.090;5.244;2022-07-29T04:40:36;2.31;;;1.9;;
61675;SDS011;47574;52.090;5.244;2022-07-29T04:44:08;3.6;;;1.7;;
61675;SDS011;47574;52.090;5.244;2022-07-29T04:45:54;2.7;;;1.5;;
61675;SDS011;47574;52.090;5.244;2022-07-29T04:47:40;2.7;;;1.5;;
61675;SDS011;47574;52.090;5.244;2022-07-29T04:49:27;2.5;;;1.8;;
61675;SDS011;47574;52.090;5.244;2022-07-29T04:51:14;5.11;;;1.6;;
61675;SDS011;47574;52.090;5.244;2022-07-29T04:53:02;5.11;;;1.7;;
61675;SDS011;47574;52.090;5.244;2022-07-29T04:56:35;3.5;;;1.8;;
61675;SDS011;47574;52.090;5.244;2022-07-29T04:58:23;3.2;;;1.7;;
61675;SDS011;47574;52.090;5.244;2022-07-29T05:00:10;2.9;;;1.9;;
61675;SDS011;47574;52.090;5.244;2022-07-29T05:01:57;3.6;;;1.7;;
61675;SDS011;47574;52.090;5.244;2022-07-29T05:03:43;2.5;;;1.6;;
61675;SDS011;47574;52.090;5.244;2022-07-29T05:05:30;4.7;;;1.7;;
61675;SDS011;47574;52.090;5.244;2022-07-29T05:09:03;3.5;;;1.9;;
61675;SDS011;47574;52.090;5.244;2022-07-29T05:10:50;2.8;;;1.3;;
61675;SDS011;47574;52.090;5.244;2022-07-29T05:12:37;1.6;;;1.4;;
61675;SDS011;47574;52.090;5.244;2022-07-29T05:14:23;7.4;;;2.0;;
61675;SDS011;47574;52.090;5.244;2022-07-29T05:16:10;3.8;;;1.7;;
61675;SDS011;47574;52.090;5.244;2022-07-29T05:19:43;3.6;;;1.7;;
61675;SDS011;47574;52.090;5.244;2022-07-29T05:21:29;2.5;;;1.4;;
61675;SDS011;47574;52.090;5.244;2022-07-29T05:23:16;2.5;;;1.4;;
61675;SDS011;47574;52.090;5.244;2022-07-29T05:25:03;3.8;;;1.7;;
61675;SDS011;47574;52.090;5.244;2022-07-29T05:26:50;3.4;;;1.4;;
61675;SDS011;47574;52.090;5.244;2022-07-29T05:28:37;2.6;;;1.8;;
61675;SDS011;47574;52.090;5.244;2022-07-29T05:32:11;2.9;;;1.8;;
61675;SDS011;47574;52.090;5.244;2022-07-29T05:33:58;1.5;;;1.4;;
61675;SDS011;47574;52.090;5.244;2022-07-29T05:35:44;2.31;;;1.6;;
61675;SDS011;47574;52.090;5.244;2022-07-29T05:37:30;3.6;;;1.9;;
61675;SDS011;47574;52.090;5.244;2022-07-29T05:39:17;5.2;;;1.6;;
61675;SDS011;47574;52.090;5.244;2022-07-29T05:41:03;3.1;;;1.7;;
61675;SDS011;47574;52.090;5.244;2022-07-29T05:44:38;2.7;;;1.7;;
61675;SDS011;47574;52.090;5.244;2022-07-29T05:46:25;2.8;;;1.6;;
61675;SDS011;47574;52.090;5.244;2022-07-29T05:48:12;5.3;;;1.7;;
61675;SDS011;47574;52.090;5.244;2022-07-29T05:49:58;3.6;;;1.6;;
61675;SDS011;47574;52.090;5.244;2022-07-29T05:51:44;2.7;;;1.8;;
61675;SDS011;47574;52.090;5.244;2022-07-29T05:55:17;3.5;;;1.8;;
61675;SDS011;47574;52.090;5.244;2022-07-29T05:57:05;3.5;;;1.7;;
61675;SDS011;47574;52.090;5.244;2022-07-29T05:58:52;3.3;;;1.6;;
61675;SDS011;47574;52.090;5.244;2022-07-29T06:00:39;2.7;;;1.7;;
61675;SDS011;47574;52.090;5.244;2022-07-29T06:02:26;5.0;;;1.6;;
61675;SDS011;47574;52.090;5.244;2022-07-29T06:04:12;4.3;;;1.8;;
61675;SDS011;47574;52.090;5.244;2022-07-29T06:07:45;2.1;;;1.7;;
61675;SDS011;47574;52.090;5.244;2022-07-29T06:09:32;2.7;;;1.8;;
61675;SDS011;47574;52.090;5.244;2022-07-29T06:11:19;4.1;;;1.9;;
61675;SDS011;47574;52.090;5.244;2022-07-29T06:13:05;3.3;;;1.9;;
61675;SDS011;47574;52.090;5.244;2022-07-29T06:14:51;4.7;;;1.9;;
61675;SDS011;47574;52.090;5.244;2022-07-29T06:16:37;3.6;;;1.7;;
61675;SDS011;47574;52.090;5.244;2022-07-29T06:20:10;3.4;;;1.6;;
61675;SDS011;47574;52.090;5.244;2022-07-29T06:21:57;3.8;;;1.9;;
61675;SDS011;47574;52.090;5.244;2022-07-29T06:23:45;6.6;;;2.6;;
61675;SDS011;47574;52.090;5.244;2022-07-29T06:25:34;3.2;;;1.8;;
61675;SDS011;47574;52.090;5.244;2022-07-29T06:27:20;3.2;;;1.8;;
61675;SDS011;47574;52.090;5.244;2022-07-29T06:30:54;2.8;;;1.7;;
61675;SDS011;47574;52.090;5.244;2022-07-29T06:32:42;4.61;;;1.9;;
61675;SDS011;47574;52.090;5.244;2022-07-29T06:34:28;4.8;;;1.8;;
61675;SDS011;47574;52.090;5.244;2022-07-29T06:36:14;5.11;;;1.8;;
61675;SDS011;47574;52.090;5.244;2022-07-29T06:38:01;4.5;;;1.7;;
61675;SDS011;47574;52.090;5.244;2022-07-29T06:40:59;3.6;;;1.8;;
61675;SDS011;47574;52.090;5.244;2022-07-29T06:42:46;2.9;;;1.6;;
61675;SDS011;47574;52.090;5.244;2022-07-29T06:44:33;3.5;;;1.5;;
61675;SDS011;47574;52.090;5.244;2022-07-29T06:46:20;3.5;;;1.5;;
61675;SDS011;47574;52.090;5.244;2022-07-29T06:48:08;2.31;;;1.5;;
61675;SDS011;47574;52.090;5.244;2022-07-29T06:51:41;3.5;;;1.7;;
61675;SDS011;47574;52.090;5.244;2022-07-29T06:53:27;4.3;;;1.8;;
61675;SDS011;47574;52.090;5.244;2022-07-29T06:55:16;5.9;;;1.9;;
61675;SDS011;47574;52.090;5.244;2022-07-29T06:57:02;5.8;;;2.0;;
61675;SDS011;47574;52.090;5.244;2022-07-29T06:58:48;3.9;;;2.0;;
61675;SDS011;47574;52.090;5.244;2022-07-29T07:00:34;2.21;;;2.0;;
61675;SDS011;47574;52.090;5.244;2022-07-29T07:04:08;4.91;;;2.31;;
61675;SDS011;47574;52.090;5.244;2022-07-29T07:05:55;3.1;;;2.21;;
61675;SDS011;47574;52.090;5.244;2022-07-29T07:07:43;3.4;;;1.8;;
61675;SDS011;47574;52.090;5.244;2022-07-29T07:09:29;3.1;;;2.0;;
61675;SDS011;47574;52.090;5.244;2022-07-29T07:11:15;4.0;;;1.6;;
61675;SDS011;47574;52.090;5.244;2022-07-29T07:14:49;2.9;;;2.0;;
61675;SDS011;47574;52.090;5.244;2022-07-29T07:16:35;3.2;;;2.0;;
61675;SDS011;47574;52.090;5.244;2022-07-29T07:18:22;3.9;;;2.1;;
61675;SDS011;47574;52.090;5.244;2022-07-29T07:20:08;3.9;;;1.6;;
61675;SDS011;47574;52.090;5.244;2022-07-29T07:21:55;4.0;;;1.8;;
61675;SDS011;47574;52.090;5.244;2022-07-29T07:23:42;4.2;;;2.0;;
61675;SDS011;47574;52.090;5.244;2022-07-29T07:27:14;3.8;;;1.9;;
61675;SDS011;47574;52.090;5.244;2022-07-29T07:29:00;5.4;;;2.31;;
61675;SDS011;47574;52.090;5.244;2022-07-29T07:30:47;3.2;;;1.9;;
61675;SDS011;47574;52.090;5.244;2022-07-29T07:32:34;2.7;;;1.6;;
61675;SDS011;47574;52.090;5.244;2022-07-29T07:34:21;4.61;;;2.5;;
61675;SDS011;47574;52.090;5.244;2022-07-29T07:36:07;3.2;;;1.9;;
61675;SDS011;47574;52.090;5.244;2022-07-29T07:39:41;3.6;;;1.7;;
61675;SDS011;47574;52.090;5.244;2022-07-29T07:41:27;3.0;;;2.0;;
61675;SDS011;47574;52.090;5.244;2022-07-29T07:43:14;3.4;;;1.9;;
61675;SDS011;47574;52.090;5.244;2022-07-29T07:45:00;3.8;;;1.9;;
61675;SDS011;47574;52.090;5.244;2022-07-29T07:46:46;4.8;;;3.7;;
61675;SDS011;47574;52.090;5.244;2022-07-29T07:50:21;5.6;;;2.21;;
61675;SDS011;47574;52.090;5.244;2022-07-29T07:52:07;7.5;;;1.9;;
61675;SDS011;47574;52.090;5.244;2022-07-29T07:53:54;5.5;;;2.0;;
61675;SDS011;47574;52.090;5.244;2022-07-29T07:55:40;4.91;;;2.1;;
61675;SDS011;47574;52.090;5.244;2022-07-29T07:57:29;2.6;;;1.8;;
61675;SDS011;47574;52.090;5.244;2022-07-29T07:59:15;4.1;;;1.7;;
61675;SDS011;47574;52.090;5.244;2022-07-29T08:02:49;3.6;;;2.0;;
61675;SDS011;47574;52.090;5.244;2022-07-29T08:04:36;5.4;;;2.0;;
61675;SDS011;47574;52.090;5.244;2022-07-29T08:06:25;3.6;;;1.8;;
61675;SDS011;47574;52.090;5.244;2022-07-29T08:08:11;3.5;;;1.8;;
61675;SDS011;47574;52.090;5.244;2022-07-29T08:09:57;5.8;;;2.21;;
61675;SDS011;47574;52.090;5.244;2022-07-29T08:11:43;4.91;;;1.9;;
61675;SDS011;47574;52.090;5.244;2022-07-29T08:15:16;6.5;;;2.1;;
61675;SDS011;47574;52.090;5.244;2022-07-29T08:17:02;4.2;;;1.7;;
61675;SDS011;47574;52.090;5.244;2022-07-29T08:18:49;2.21;;;1.9;;
61675;SDS011;47574;52.090;5.244;2022-07-29T08:20:35;3.7;;;2.0;;
61675;SDS011;47574;52.090;5.244;2022-07-29T08:22:23;5.11;;;1.6;;
61675;SDS011;47574;52.090;5.244;2022-07-29T08:26:59;4.1;;;2.21;;
61675;SDS011;47574;52.090;5.244;2022-07-29T08:28:46;3.2;;;1.8;;
61675;SDS011;47574;52.090;5.244;2022-07-29T08:30:32;3.1;;;2.1;;
61675;SDS011;47574;52.090;5.244;2022-07-29T08:34:09;3.4;;;2.4;;
61675;SDS011;47574;52.090;5.244;2022-07-29T08:35:55;2.9;;;1.9;;
61675;SDS011;47574;52.090;5.244;2022-07-29T08:37:42;4.0;;;1.9;;
61675;SDS011;47574;52.090;5.244;2022-07-29T08:39:28;4.0;;;1.7;;
61675;SDS011;47574;52.090;5.244;2022-07-29T08:41:15;5.4;;;1.9;;
61675;SDS011;47574;52.090;5.244;2022-07-29T08:44:53;4.91;;;2.0;;
61675;SDS011;47574;52.090;5.244;2022-07-29T08:46:41;4.5;;;1.6;;
61675;SDS011;47574;52.090;5.244;2022-07-29T08:48:28;4.1;;;1.9;;
61675;SDS011;47574;52.090;5.244;2022-07-29T08:50:15;3.4;;;1.9;;
61675;SDS011;47574;52.090;5.244;2022-07-29T08:52:01;2.9;;;1.9;;
61675;SDS011;47574;52.090;5.244;2022-07-29T08:53:49;3.1;;;1.9;;
61675;SDS011;47574;52.090;5.244;2022-07-29T08:55:38;5.7;;;4.1;;
61675;SDS011;47574;52.090;5.244;2022-07-29T08:59:13;4.61;;;2.1;;
61675;SDS011;47574;52.090;5.244;2022-07-29T09:01:01;2.7;;;1.8;;
61675;SDS011;47574;52.090;5.244;2022-07-29T09:02:49;3.1;;;2.0;;
61675;SDS011;47574;52.090;5.244;2022-07-29T09:04:42;4.3;;;1.9;;
61675;SDS011;47574;52.090;5.244;2022-07-29T09:06:31;4.5;;;1.9;;
61675;SDS011;47574;52.090;5.244;2022-07-29T09:08:23;6.4;;;1.9;;
61675;SDS011;47574;52.090;5.244;2022-07-29T09:11:56;5.0;;;2.31;;
61675;SDS011;47574;52.090;5.244;2022-07-29T09:13:46;4.1;;;2.1;;
61675;SDS011;47574;52.090;5.244;2022-07-29T09:15:32;5.3;;;2.1;;
61675;SDS011;47574;52.090;5.244;2022-07-29T09:17:33;5.8;;;2.1;;
61675;SDS011;47574;52.090;5.244;2022-07-29T09:19:27;4.7;;;1.9;;
61675;SDS011;47574;52.090;5.244;2022-07-29T09:22:28;3.0;;;2.0;;
61675;SDS011;47574;52.090;5.244;2022-07-29T09:24:15;3.5;;;2.1;;
61675;SDS011;47574;52.090;5.244;2022-07-29T09:26:05;5.11;;;2.21;;
61675;SDS011;47574;52.090;5.244;2022-07-29T09:27:51;3.4;;;1.5;;
61675;SDS011;47574;52.090;5.244;2022-07-29T09:29:38;5.6;;;1.6;;
61675;SDS011;47574;52.090;5.244;2022-07-29T09:31:32;5.6;;;1.6;;
61675;SDS011;47574;52.090;5.244;2022-07-29T09:33:20;2.8;;;1.9;;
61675;SDS011;47574;52.090;5.244;2022-07-29T09:37:05;2.8;;;1.7;;
61675;SDS011;47574;52.090;5.244;2022-07-29T09:38:57;5.5;;;1.7;;
61675;SDS011;47574;52.090;5.244;2022-07-29T09:40:43;3.3;;;1.7;;
61675;SDS011;47574;52.090;5.244;2022-07-29T09:42:42;3.3;;;1.8;;
61675;SDS011;47574;52.090;5.244;2022-07-29T09:44:45;2.8;;;1.7;;
61675;SDS011;47574;52.090;5.244;2022-07-29T09:46:34;3.9;;;1.9;;
61675;SDS011;47574;52.090;5.244;2022-07-29T09:48:22;4.5;;;1.9;;
61675;SDS011;47574;52.090;5.244;2022-07-29T09:50:10;4.7;;;1.8;;
61675;SDS011;47574;52.090;5.244;2022-07-29T09:53:50;4.91;;;1.6;;
61675;SDS011;47574;52.090;5.244;2022-07-29T09:55:52;5.7;;;1.8;;
61675;SDS011;47574;52.090;5.244;2022-07-29T09:57:39;4.41;;;1.6;;
61675;SDS011;47574;52.090;5.244;2022-07-29T09:59:26;2.4;;;1.6;;
61675;SDS011;47574;52.090;5.244;2022-07-29T10:01:12;4.5;;;1.8;;
61675;SDS011;47574;52.090;5.244;2022-07-29T10:03:00;5.11;;;1.9;;
61675;SDS011;47574;52.090;5.244;2022-07-29T10:04:47;7.4;;;2.1;;
61675;SDS011;47574;52.090;5.244;2022-07-29T10:08:41;4.91;;;1.6;;
61675;SDS011;47574;52.090;5.244;2022-07-29T10:10:28;3.4;;;1.5;;
61675;SDS011;47574;52.090;5.244;2022-07-29T10:12:18;4.61;;;1.7;;
61675;SDS011;47574;52.090;5.244;2022-07-29T10:14:04;4.61;;;1.7;;
61675;SDS011;47574;52.090;5.244;2022-07-29T10:15:51;3.1;;;1.3;;
61675;SDS011;47574;52.090;5.244;2022-07-29T10:17:39;7.5;;;1.6;;
61675;SDS011;47574;52.090;5.244;2022-07-29T10:19:27;5.0;;;1.6;;
61675;SDS011;47574;52.090;5.244;2022-07-29T10:23:02;5.7;;;1.3;;
61675;SDS011;47574;52.090;5.244;2022-07-29T10:24:50;2.7;;;1.4;;
61675;SDS011;47574;52.090;5.244;2022-07-29T10:26:41;3.6;;;1.3;;
61675;SDS011;47574;52.090;5.244;2022-07-29T10:28:29;5.0;;;2.21;;
61675;SDS011;47574;52.090;5.244;2022-07-29T10:30:16;2.1;;;1.3;;
61675;SDS011;47574;52.090;5.244;2022-07-29T10:32:10;2.5;;;1.4;;
61675;SDS011;47574;52.090;5.244;2022-07-29T10:34:07;4.41;;;1.4;;
61675;SDS011;47574;52.090;5.244;2022-07-29T10:36:07;4.2;;;1.5;;
61675;SDS011;47574;52.090;5.244;2022-07-29T10:38:15;6.5;;;1.3;;
61675;SDS011;47574;52.090;5.244;2022-07-29T10:41:53;3.1;;;1.5;;
61675;SDS011;47574;52.090;5.244;2022-07-29T10:43:56;4.7;;;1.3;;
61675;SDS011;47574;52.090;5.244;2022-07-29T10:45:47;5.2;;;1.4;;
61675;SDS011;47574;52.090;5.244;2022-07-29T10:47:36;2.4;;;1.3;;
61675;SDS011;47574;52.090;5.244;2022-07-29T10:49:22;2.4;;;1.2;;
61675;SDS011;47574;52.090;5.244;2022-07-29T10:51:10;9.6;;;2.1;;
61675;SDS011;47574;52.090;5.244;2022-07-29T10:52:57;2.8;;;1.2;;
61675;SDS011;47574;52.090;5.244;2022-07-29T10:56:36;6.0;;;1.5;;
61675;SDS011;47574;52.090;5.244;2022-07-29T10:58:23;6.3;;;1.8;;
61675;SDS011;47574;52.090;5.244;2022-07-29T11:00:29;4.8;;;1.7;;
61675;SDS011;47574;52.090;5.244;2022-07-29T11:02:50;3.4;;;1.4;;
61675;SDS011;47574;52.090;5.244;2022-07-29T11:05:08;3.7;;;1.7;;
61675;SDS011;47574;52.090;5.244;2022-07-29T11:07:08;2.8;;;1.6;;
61675;SDS011;47574;52.090;5.244;2022-07-29T11:09:27;9.4;;;2.1;;
61675;SDS011;47574;52.090;5.244;2022-07-29T11:11:30;3.3;;;1.7;;
61675;SDS011;47574;52.090;5.244;2022-07-29T11:13:45;6.2;;;1.6;;
61675;SDS011;47574;52.090;5.244;2022-07-29T11:15:57;6.9;;;1.6;;
61675;SDS011;47574;52.090;5.244;2022-07-29T11:18:03;7.0;;;3.0;;
61675;SDS011;47574;52.090;5.244;2022-07-29T11:19:51;3.3;;;1.4;;
61675;SDS011;47574;52.090;5.244;2022-07-29T11:22:30;3.0;;;1.5;;
61675;SDS011;47574;52.090;5.244;2022-07-29T11:24:21;10.5;;;2.8;;
61675;SDS011;47574;52.090;5.244;2022-07-29T11:28:08;4.2;;;1.6;;
61675;SDS011;47574;52.090;5.244;2022-07-29T11:30:04;6.2;;;2.21;;
61675;SDS011;47574;52.090;5.244;2022-07-29T11:31:54;5.3;;;2.6;;
61675;SDS011;47574;52.090;5.244;2022-07-29T11:33:56;9.1;;;1.8;;
61675;SDS011;47574;52.090;5.244;2022-07-29T11:35:43;5.3;;;1.6;;
61675;SDS011;47574;52.090;5.244;2022-07-29T11:38:23;5.2;;;1.8;;
61675;SDS011;47574;52.090;5.244;2022-07-29T11:40:13;6.4;;;2.31;;
61675;SDS011;47574;52.090;5.244;2022-07-29T11:42:36;5.5;;;1.8;;
61675;SDS011;47574;52.090;5.244;2022-07-29T11:44:55;4.3;;;1.6;;
61675;SDS011;47574;52.090;5.244;2022-07-29T11:46:44;5.5;;;1.5;;
61675;SDS011;47574;52.090;5.244;2022-07-29T11:48:32;3.6;;;1.6;;
61675;SDS011;47574;52.090;5.244;2022-07-29T11:50:28;5.3;;;1.9;;
61675;SDS011;47574;52.090;5.244;2022-07-29T11:52:18;6.6;;;1.9;;
61675;SDS011;47574;52.090;5.244;2022-07-29T11:54:06;6.6;;;1.9;;
61675;SDS011;47574;52.090;5.244;2022-07-29T11:55:59;5.5;;;1.6;;
61675;SDS011;47574;52.090;5.244;2022-07-29T11:57:47;4.91;;;1.8;;
61675;SDS011;47574;52.090;5.244;2022-07-29T12:01:26;6.8;;;2.0;;
61675;SDS011;47574;52.090;5.244;2022-07-29T12:03:22;4.7;;;1.7;;
61675;SDS011;47574;52.090;5.244;2022-07-29T12:05:10;4.41;;;1.7;;
61675;SDS011;47574;52.090;5.244;2022-07-29T12:06:57;6.1;;;1.8;;
61675;SDS011;47574;52.090;5.244;2022-07-29T12:08:44;6.6;;;2.31;;
61675;SDS011;47574;52.090;5.244;2022-07-29T12:10:31;5.9;;;2.21;;
61675;SDS011;47574;52.090;5.244;2022-07-29T12:12:18;5.3;;;1.8;;
61675;SDS011;47574;52.090;5.244;2022-07-29T12:15:52;6.5;;;2.1;;
61675;SDS011;47574;52.090;5.244;2022-07-29T12:17:39;4.1;;;1.6;;
61675;SDS011;47574;52.090;5.244;2022-07-29T12:19:25;3.8;;;1.7;;
61675;SDS011;47574;52.090;5.244;2022-07-29T12:21:12;5.2;;;1.6;;
61675;SDS011;47574;52.090;5.244;2022-07-29T12:22:58;4.5;;;1.6;;
61675;SDS011;47574;52.090;5.244;2022-07-29T12:24:52;4.61;;;1.8;;
61675;SDS011;47574;52.090;5.244;2022-07-29T12:28:36;4.61;;;1.6;;
61675;SDS011;47574;52.090;5.244;2022-07-29T12:30:23;4.91;;;1.5;;
61675;SDS011;47574;52.090;5.244;2022-07-29T12:32:21;4.2;;;1.7;;
61675;SDS011;47574;52.090;5.244;2022-07-29T12:34:08;7.7;;;1.8;;
61675;SDS011;47574;52.090;5.244;2022-07-29T12:35:56;2.7;;;1.7;;
61675;SDS011;47574;52.090;5.244;2022-07-29T12:37:45;7.2;;;2.1;;
61675;SDS011;47574;52.090;5.244;2022-07-29T12:39:34;5.5;;;1.9;;
61675;SDS011;47574;52.090;5.244;2022-07-29T12:43:10;8.1;;;2.0;;
61675;SDS011;47574;52.090;5.244;2022-07-29T12:44:57;4.0;;;2.0;;
61675;SDS011;47574;52.090;5.244;2022-07-29T12:47:00;7.0;;;2.0;;
61675;SDS011;47574;52.090;5.244;2022-07-29T12:48:49;4.61;;;1.7;;
61675;SDS011;47574;52.090;5.244;2022-07-29T12:50:51;4.1;;;1.4;;
61675;SDS011;47574;52.090;5.244;2022-07-29T12:52:42;4.41;;;1.9;;
61675;SDS011;47574;52.090;5.244;2022-07-29T12:54:30;4.2;;;1.7;;
61675;SDS011;47574;52.090;5.244;2022-07-29T12:56:16;4.61;;;1.9;;
61675;SDS011;47574;52.090;5.244;2022-07-29T12:59:59;4.61;;;1.9;;
61675;SDS011;47574;52.090;5.244;2022-07-29T13:01:49;3.1;;;2.0;;
61675;SDS011;47574;52.090;5.244;2022-07-29T13:03:42;5.9;;;2.0;;
61675;SDS011;47574;52.090;5.244;2022-07-29T13:05:40;5.6;;;2.0;;